sensor_id;sensor_type;location;lat;lon;timestamp;pressure;altitude;pressure_sealevel;temperature;humidity
15634;BME280;14654;48.898;8.308;2022-07-19T00:01:44;100522.34;;;19.88;84.63
15634;BME280;14654;48.898;8.308;2022-07-19T00:04:10;100526.69;;;19.89;85.13
15634;BME280;14654;48.898;8.308;2022-07-19T00:06:35;100520.53;;;19.90;86.00
15634;BME280;14654;48.898;8.308;2022-07-19T00:09:01;100525.84;;;19.89;86.91
15634;BME280;14654;48.898;8.308;2022-07-19T00:11:26;100522.22;;;19.91;87.56
15634;BME280;14654;48.898;8.308;2022-07-19T00:13:52;100531.16;;;19.87;87.46
15634;BME280;14654;48.898;8.308;2022-07-19T00:16:17;100520.13;;;19.79;87.29
15634;BME280;14654;48.898;8.308;2022-07-19T00:18:43;100522.00;;;19.75;87.62
15634;BME280;14654;48.898;8.308;2022-07-19T00:21:08;100523.78;;;19.75;88.28
15634;BME280;14654;48.898;8.308;2022-07-19T00:23:34;100529.88;;;19.75;88.94
15634;BME280;14654;48.898;8.308;2022-07-19T00:26:01;100525.63;;;19.73;88.75
15634;BME280;14654;48.898;8.308;2022-07-19T00:28:28;100516.94;;;19.71;88.46
15634;BME280;14654;48.898;8.308;2022-07-19T00:30:53;100519.88;;;19.64;87.80
15634;BME280;14654;48.898;8.308;2022-07-19T00:33:19;100528.06;;;19.57;87.48
15634;BME280;14654;48.898;8.308;2022-07-19T00:35:45;100522.94;;;19.54;87.38
15634;BME280;14654;48.898;8.308;2022-07-19T00:38:14;100520.44;;;19.50;86.77
15634;BME280;14654;48.898;8.308;2022-07-19T00:40:40;100516.91;;;19.52;86.80
15634;BME280;14654;48.898;8.308;2022-07-19T00:43:07;100524.78;;;19.52;87.46
15634;BME280;14654;48.898;8.308;2022-07-19T00:45:33;100520.44;;;19.50;87.88
15634;BME280;14654;48.898;8.308;2022-07-19T00:47:58;100514.59;;;19.44;87.53
15634;BME280;14654;48.898;8.308;2022-07-19T00:50:24;100513.03;;;19.40;87.71
15634;BME280;14654;48.898;8.308;2022-07-19T00:52:57;100522.88;;;19.34;88.27
15634;BME280;14654;48.898;8.308;2022-07-19T00:55:27;100525.63;;;19.31;88.97
15634;BME280;14654;48.898;8.308;2022-07-19T00:57:55;100520.41;;;19.30;89.75
15634;BME280;14654;48.898;8.308;2022-07-19T01:00:20;100512.63;;;19.28;90.53
15634;BME280;14654;48.898;8.308;2022-07-19T01:02:49;100523.19;;;19.27;90.76
15634;BME280;14654;48.898;8.308;2022-07-19T01:05:16;100526.84;;;19.23;92.01
15634;BME280;14654;48.898;8.308;2022-07-19T01:07:41;100529.72;;;19.16;92.09
15634;BME280;14654;48.898;8.308;2022-07-19T01:10:09;100528.16;;;19.12;92.68
15634;BME280;14654;48.898;8.308;2022-07-19T01:12:34;100526.69;;;19.05;92.84
15634;BME280;14654;48.898;8.308;2022-07-19T01:15:01;100517.38;;;18.98;92.66
15634;BME280;14654;48.898;8.308;2022-07-19T01:17:28;100520.28;;;18.90;92.76
15634;BME280;14654;48.898;8.308;2022-07-19T01:19:55;100524.75;;;18.86;93.03
15634;BME280;14654;48.898;8.308;2022-07-19T01:22:21;100529.22;;;18.84;93.34
15634;BME280;14654;48.898;8.308;2022-07-19T01:24:46;100530.13;;;18.83;93.72
15634;BME280;14654;48.898;8.308;2022-07-19T01:27:12;100534.59;;;18.81;94.19
15634;BME280;14654;48.898;8.308;2022-07-19T01:29:37;100531.19;;;18.79;94.57
15634;BME280;14654;48.898;8.308;2022-07-19T01:32:03;100520.94;;;18.73;94.79
15634;BME280;14654;48.898;8.308;2022-07-19T01:34:29;100526.44;;;18.67;94.88
15634;BME280;14654;48.898;8.308;2022-07-19T01:36:55;100527.50;;;18.61;94.72
15634;BME280;14654;48.898;8.308;2022-07-19T01:39:20;100525.13;;;18.55;94.84
15634;BME280;14654;48.898;8.308;2022-07-19T01:41:48;100522.63;;;18.52;95.33
15634;BME280;14654;48.898;8.308;2022-07-19T01:44:13;100525.41;;;18.47;94.94
15634;BME280;14654;48.898;8.308;2022-07-19T01:46:40;100524.69;;;18.43;94.59
15634;BME280;14654;48.898;8.308;2022-07-19T01:49:05;100530.88;;;18.41;94.58
15634;BME280;14654;48.898;8.308;2022-07-19T01:51:31;100534.56;;;18.37;94.49
15634;BME280;14654;48.898;8.308;2022-07-19T01:53:56;100520.88;;;18.28;94.35
15634;BME280;14654;48.898;8.308;2022-07-19T01:56:22;100517.69;;;18.20;93.97
15634;BME280;14654;48.898;8.308;2022-07-19T01:58:47;100513.66;;;18.11;93.86
15634;BME280;14654;48.898;8.308;2022-07-19T02:01:13;100508.50;;;18.08;94.31
15634;BME280;14654;48.898;8.308;2022-07-19T02:03:38;100512.84;;;18.09;94.60
15634;BME280;14654;48.898;8.308;2022-07-19T02:06:05;100510.97;;;18.13;95.08
15634;BME280;14654;48.898;8.308;2022-07-19T02:08:30;100507.31;;;18.17;95.57
15634;BME280;14654;48.898;8.308;2022-07-19T02:10:56;100506.34;;;18.20;96.37
15634;BME280;14654;48.898;8.308;2022-07-19T02:13:21;100503.63;;;18.23;97.64
15634;BME280;14654;48.898;8.308;2022-07-19T02:15:48;100500.03;;;18.25;98.62
15634;BME280;14654;48.898;8.308;2022-07-19T02:18:14;100499.22;;;18.23;99.07
15634;BME280;14654;48.898;8.308;2022-07-19T02:20:42;100487.06;;;18.22;100.00
15634;BME280;14654;48.898;8.308;2022-07-19T02:23:07;100492.50;;;18.16;100.00
15634;BME280;14654;48.898;8.308;2022-07-19T02:25:33;100488.38;;;18.10;100.00
15634;BME280;14654;48.898;8.308;2022-07-19T02:27:59;100483.31;;;18.06;100.00
15634;BME280;14654;48.898;8.308;2022-07-19T02:30:25;100481.69;;;18.02;100.00
15634;BME280;14654;48.898;8.308;2022-07-19T02:32:51;100480.00;;;18.01;100.00
15634;BME280;14654;48.898;8.308;2022-07-19T02:35:16;100477.44;;;17.99;100.00
15634;BME280;14654;48.898;8.308;2022-07-19T02:37:44;100479.22;;;17.97;100.00
15634;BME280;14654;48.898;8.308;2022-07-19T02:40:11;100479.25;;;17.95;100.00
15634;BME280;14654;48.898;8.308;2022-07-19T02:42:37;100484.69;;;17.91;100.00
15634;BME280;14654;48.898;8.308;2022-07-19T02:45:04;100475.28;;;17.85;100.00
15634;BME280;14654;48.898;8.308;2022-07-19T02:47:30;100474.66;;;17.78;100.00
15634;BME280;14654;48.898;8.308;2022-07-19T02:49:55;100471.34;;;17.73;100.00
15634;BME280;14654;48.898;8.308;2022-07-19T02:52:21;100471.59;;;17.65;100.00
15634;BME280;14654;48.898;8.308;2022-07-19T02:54:46;100471.06;;;17.56;100.00
15634;BME280;14654;48.898;8.308;2022-07-19T02:57:12;100476.56;;;17.48;100.00
15634;BME280;14654;48.898;8.308;2022-07-19T02:59:37;100475.94;;;17.41;100.00
15634;BME280;14654;48.898;8.308;2022-07-19T03:02:03;100479.69;;;17.34;100.00
15634;BME280;14654;48.898;8.308;2022-07-19T03:04:29;100475.53;;;17.28;100.00
15634;BME280;14654;48.898;8.308;2022-07-19T03:06:54;100468.69;;;17.24;100.00
15634;BME280;14654;48.898;8.308;2022-07-19T03:09:20;100472.19;;;17.23;100.00
15634;BME280;14654;48.898;8.308;2022-07-19T03:11:45;100470.44;;;17.24;100.00
15634;BME280;14654;48.898;8.308;2022-07-19T03:14:10;100475.63;;;17.25;100.00
15634;BME280;14654;48.898;8.308;2022-07-19T03:16:36;100479.97;;;17.25;100.00
15634;BME280;14654;48.898;8.308;2022-07-19T03:19:01;100469.47;;;17.26;100.00
15634;BME280;14654;48.898;8.308;2022-07-19T03:21:27;100478.16;;;17.27;100.00
15634;BME280;14654;48.898;8.308;2022-07-19T03:23:52;100477.34;;;17.26;100.00
15634;BME280;14654;48.898;8.308;2022-07-19T03:26:18;100481.75;;;17.24;100.00
15634;BME280;14654;48.898;8.308;2022-07-19T03:28:43;100487.94;;;17.21;100.00
15634;BME280;14654;48.898;8.308;2022-07-19T03:31:08;100482.81;;;17.18;100.00
15634;BME280;14654;48.898;8.308;2022-07-19T03:33:34;100483.88;;;17.13;100.00
15634;BME280;14654;48.898;8.308;2022-07-19T03:36:02;100481.44;;;17.08;100.00
15634;BME280;14654;48.898;8.308;2022-07-19T03:38:28;100483.22;;;17.06;100.00
15634;BME280;14654;48.898;8.308;2022-07-19T03:40:53;100485.88;;;17.04;100.00
15634;BME280;14654;48.898;8.308;2022-07-19T03:43:19;100482.41;;;17.04;100.00
15634;BME280;14654;48.898;8.308;2022-07-19T03:45:46;100488.56;;;17.03;100.00
15634;BME280;14654;48.898;8.308;2022-07-19T03:48:12;100489.41;;;17.03;100.00
15634;BME280;14654;48.898;8.308;2022-07-19T03:50:38;100486.84;;;17.02;100.00
15634;BME280;14654;48.898;8.308;2022-07-19T03:53:03;100495.59;;;17.01;100.00
15634;BME280;14654;48.898;8.308;2022-07-19T03:55:29;100492.97;;;17.01;100.00
15634;BME280;14654;48.898;8.308;2022-07-19T03:57:54;100496.41;;;17.03;100.00
15634;BME280;14654;48.898;8.308;2022-07-19T04:00:20;100490.28;;;17.04;100.00
15634;BME280;14654;48.898;8.308;2022-07-19T04:02:45;100501.47;;;17.08;100.00
15634;BME280;14654;48.898;8.308;2022-07-19T04:05:11;100504.00;;;17.11;100.00
15634;BME280;14654;48.898;8.308;2022-07-19T04:07:37;100499.41;;;17.17;100.00
15634;BME280;14654;48.898;8.308;2022-07-19T04:10:03;100511.38;;;17.25;100.00
15634;BME280;14654;48.898;8.308;2022-07-19T04:12:28;100513.72;;;17.32;100.00
15634;BME280;14654;48.898;8.308;2022-07-19T04:14:53;100507.50;;;17.36;100.00
15634;BME280;14654;48.898;8.308;2022-07-19T04:17:19;100513.47;;;17.40;100.00
15634;BME280;14654;48.898;8.308;2022-07-19T04:19:45;100510.75;;;17.43;100.00
15634;BME280;14654;48.898;8.308;2022-07-19T04:22:10;100511.53;;;17.47;100.00
15634;BME280;14654;48.898;8.308;2022-07-19T04:24:36;100511.38;;;17.51;100.00
15634;BME280;14654;48.898;8.308;2022-07-19T04:27:01;100513.72;;;17.59;100.00
15634;BME280;14654;48.898;8.308;2022-07-19T04:29:27;100516.09;;;17.65;100.00
15634;BME280;14654;48.898;8.308;2022-07-19T04:31:52;100512.41;;;17.96;100.00
15634;BME280;14654;48.898;8.308;2022-07-19T04:34:17;100511.75;;;18.61;98.93
15634;BME280;14654;48.898;8.308;2022-07-19T04:36:43;100513.28;;;19.33;96.48
15634;BME280;14654;48.898;8.308;2022-07-19T04:39:08;100516.25;;;19.67;95.12
15634;BME280;14654;48.898;8.308;2022-07-19T04:41:34;100518.19;;;19.83;94.49
15634;BME280;14654;48.898;8.308;2022-07-19T04:44:00;100516.50;;;20.02;93.69
15634;BME280;14654;48.898;8.308;2022-07-19T04:46:25;100511.31;;;20.20;93.46
15634;BME280;14654;48.898;8.308;2022-07-19T04:48:51;100510.97;;;20.28;92.88
15634;BME280;14654;48.898;8.308;2022-07-19T04:51:17;100513.53;;;20.29;93.09
15634;BME280;14654;48.898;8.308;2022-07-19T04:53:43;100511.81;;;20.28;92.98
15634;BME280;14654;48.898;8.308;2022-07-19T04:56:08;100503.38;;;20.40;92.56
15634;BME280;14654;48.898;8.308;2022-07-19T04:58:34;100504.06;;;20.82;91.48
15634;BME280;14654;48.898;8.308;2022-07-19T05:01:01;100507.50;;;21.20;90.15
15634;BME280;14654;48.898;8.308;2022-07-19T05:03:27;100499.22;;;21.27;89.27
15634;BME280;14654;48.898;8.308;2022-07-19T05:05:52;100500.06;;;21.10;89.65
15634;BME280;14654;48.898;8.308;2022-07-19T05:08:18;100504.69;;;21.05;89.98
15634;BME280;14654;48.898;8.308;2022-07-19T05:10:43;100505.00;;;21.52;88.52
15634;BME280;14654;48.898;8.308;2022-07-19T05:13:09;100503.84;;;21.75;87.66
15634;BME280;14654;48.898;8.308;2022-07-19T05:15:34;100507.94;;;21.81;87.29
15634;BME280;14654;48.898;8.308;2022-07-19T05:18:00;100505.78;;;22.05;87.00
15634;BME280;14654;48.898;8.308;2022-07-19T05:20:25;100508.22;;;22.90;85.01
15634;BME280;14654;48.898;8.308;2022-07-19T05:22:50;100515.53;;;24.61;81.23
15634;BME280;14654;48.898;8.308;2022-07-19T05:25:16;100505.84;;;26.20;77.25
15634;BME280;14654;48.898;8.308;2022-07-19T05:27:41;100506.19;;;26.77;74.50
15634;BME280;14654;48.898;8.308;2022-07-19T05:30:09;100500.88;;;27.37;70.78
15634;BME280;14654;48.898;8.308;2022-07-19T05:32:35;100500.81;;;28.29;68.25
15634;BME280;14654;48.898;8.308;2022-07-19T05:35:00;100496.97;;;29.20;65.44
15634;BME280;14654;48.898;8.308;2022-07-19T05:37:26;100494.44;;;29.92;63.40
15634;BME280;14654;48.898;8.308;2022-07-19T05:39:51;100496.31;;;30.62;61.92
15634;BME280;14654;48.898;8.308;2022-07-19T05:42:17;100501.81;;;31.29;59.82
15634;BME280;14654;48.898;8.308;2022-07-19T05:44:42;100496.63;;;31.65;58.97
15634;BME280;14654;48.898;8.308;2022-07-19T05:47:07;100490.78;;;31.89;58.02
15634;BME280;14654;48.898;8.308;2022-07-19T05:49:33;100496.50;;;32.22;57.31
15634;BME280;14654;48.898;8.308;2022-07-19T05:51:58;100498.59;;;32.57;56.61
15634;BME280;14654;48.898;8.308;2022-07-19T05:54:23;100498.25;;;32.78;55.58
15634;BME280;14654;48.898;8.308;2022-07-19T05:56:50;100498.97;;;32.98;54.97
15634;BME280;14654;48.898;8.308;2022-07-19T05:59:15;100493.56;;;33.16;54.38
15634;BME280;14654;48.898;8.308;2022-07-19T06:01:40;100489.72;;;33.37;53.90
15634;BME280;14654;48.898;8.308;2022-07-19T06:04:06;100487.72;;;33.73;53.94
15634;BME280;14654;48.898;8.308;2022-07-19T06:06:33;100491.53;;;33.97;53.57
15634;BME280;14654;48.898;8.308;2022-07-19T06:08:59;100493.78;;;34.18;53.10
15634;BME280;14654;48.898;8.308;2022-07-19T06:11:26;100496.34;;;34.37;52.61
15634;BME280;14654;48.898;8.308;2022-07-19T06:13:52;100500.69;;;34.21;51.69
15634;BME280;14654;48.898;8.308;2022-07-19T06:16:18;100503.88;;;34.25;51.97
15634;BME280;14654;48.898;8.308;2022-07-19T06:18:43;100499.91;;;34.54;51.68
15634;BME280;14654;48.898;8.308;2022-07-19T06:21:11;100508.16;;;34.77;51.38
15634;BME280;14654;48.898;8.308;2022-07-19T06:23:37;100504.84;;;35.00;51.32
15634;BME280;14654;48.898;8.308;2022-07-19T06:26:04;100506.00;;;35.14;50.84
15634;BME280;14654;48.898;8.308;2022-07-19T06:28:30;100507.19;;;35.11;50.82
15634;BME280;14654;48.898;8.308;2022-07-19T06:30:55;100505.84;;;35.07;50.64
15634;BME280;14654;48.898;8.308;2022-07-19T06:33:21;100508.50;;;35.23;50.92
15634;BME280;14654;48.898;8.308;2022-07-19T06:35:46;100511.19;;;35.23;50.66
15634;BME280;14654;48.898;8.308;2022-07-19T06:38:12;100502.91;;;35.41;50.74
15634;BME280;14654;48.898;8.308;2022-07-19T06:40:38;100500.69;;;35.70;50.36
15634;BME280;14654;48.898;8.308;2022-07-19T06:43:03;100500.47;;;35.80;50.75
15634;BME280;14654;48.898;8.308;2022-07-19T06:45:29;100504.19;;;35.70;50.38
15634;BME280;14654;48.898;8.308;2022-07-19T06:47:54;100503.91;;;35.65;50.51
15634;BME280;14654;48.898;8.308;2022-07-19T06:50:20;100504.06;;;35.64;50.58
15634;BME280;14654;48.898;8.308;2022-07-19T06:52:46;100500.41;;;35.57;50.02
15634;BME280;14654;48.898;8.308;2022-07-19T06:55:12;100499.72;;;35.54;50.15
15634;BME280;14654;48.898;8.308;2022-07-19T06:57:38;100490.84;;;35.54;50.35
15634;BME280;14654;48.898;8.308;2022-07-19T07:00:05;100488.28;;;35.61;50.62
15634;BME280;14654;48.898;8.308;2022-07-19T07:02:31;100494.38;;;35.86;50.67
15634;BME280;14654;48.898;8.308;2022-07-19T07:04:57;100483.22;;;36.06;50.35
15634;BME280;14654;48.898;8.308;2022-07-19T07:07:22;100496.00;;;36.12;50.44
15634;BME280;14654;48.898;8.308;2022-07-19T07:09:47;100495.09;;;36.20;50.22
15634;BME280;14654;48.898;8.308;2022-07-19T07:12:13;100503.88;;;36.13;50.27
15634;BME280;14654;48.898;8.308;2022-07-19T07:14:38;100499.16;;;36.15;49.91
15634;BME280;14654;48.898;8.308;2022-07-19T07:17:03;100500.78;;;36.25;49.94
15634;BME280;14654;48.898;8.308;2022-07-19T07:19:29;100498.47;;;36.22;49.79
15634;BME280;14654;48.898;8.308;2022-07-19T07:21:54;100495.41;;;35.85;49.98
15634;BME280;14654;48.898;8.308;2022-07-19T07:24:22;100494.38;;;35.86;50.36
15634;BME280;14654;48.898;8.308;2022-07-19T07:26:48;100492.19;;;35.90;50.55
15634;BME280;14654;48.898;8.308;2022-07-19T07:29:13;100483.84;;;35.76;49.80
15634;BME280;14654;48.898;8.308;2022-07-19T07:31:39;100486.16;;;35.23;50.16
15634;BME280;14654;48.898;8.308;2022-07-19T07:34:04;100482.81;;;35.21;50.38
15634;BME280;14654;48.898;8.308;2022-07-19T07:36:29;100476.41;;;35.14;50.40
15634;BME280;14654;48.898;8.308;2022-07-19T07:38:55;100481.31;;;35.10;50.89
15634;BME280;14654;48.898;8.308;2022-07-19T07:41:20;100471.69;;;35.32;50.79
15634;BME280;14654;48.898;8.308;2022-07-19T07:43:45;100464.94;;;35.45;50.88
15634;BME280;14654;48.898;8.308;2022-07-19T07:46:11;100473.50;;;35.40;50.72
15634;BME280;14654;48.898;8.308;2022-07-19T07:48:36;100473.53;;;35.23;50.90
15634;BME280;14654;48.898;8.308;2022-07-19T07:51:02;100465.50;;;35.07;51.21
15634;BME280;14654;48.898;8.308;2022-07-19T07:53:27;100469.03;;;34.83;51.38
15634;BME280;14654;48.898;8.308;2022-07-19T07:55:52;100463.31;;;34.69;51.33
15634;BME280;14654;48.898;8.308;2022-07-19T07:58:18;100465.00;;;34.70;51.46
15634;BME280;14654;48.898;8.308;2022-07-19T08:00:43;100463.31;;;34.61;51.21
15634;BME280;14654;48.898;8.308;2022-07-19T08:03:08;100455.41;;;34.51;51.01
15634;BME280;14654;48.898;8.308;2022-07-19T08:05:34;100447.63;;;34.23;51.48
15634;BME280;14654;48.898;8.308;2022-07-19T08:08:00;100450.97;;;34.09;51.99
15634;BME280;14654;48.898;8.308;2022-07-19T08:10:27;100447.56;;;33.98;52.29
15634;BME280;14654;48.898;8.308;2022-07-19T08:12:53;100442.69;;;33.94;52.56
15634;BME280;14654;48.898;8.308;2022-07-19T08:15:20;100439.78;;;33.87;52.57
15634;BME280;14654;48.898;8.308;2022-07-19T08:17:46;100437.75;;;33.81;52.67
15634;BME280;14654;48.898;8.308;2022-07-19T08:20:11;100428.69;;;33.73;52.58
15634;BME280;14654;48.898;8.308;2022-07-19T08:22:37;100427.63;;;33.66;52.81
15634;BME280;14654;48.898;8.308;2022-07-19T08:25:03;100429.28;;;33.59;52.35
15634;BME280;14654;48.898;8.308;2022-07-19T08:27:29;100424.06;;;33.49;52.60
15634;BME280;14654;48.898;8.308;2022-07-19T08:29:54;100424.59;;;33.26;53.03
15634;BME280;14654;48.898;8.308;2022-07-19T08:32:19;100419.75;;;33.04;53.48
15634;BME280;14654;48.898;8.308;2022-07-19T08:34:45;100410.50;;;32.98;53.62
15634;BME280;14654;48.898;8.308;2022-07-19T08:37:10;100405.94;;;32.90;54.06
15634;BME280;14654;48.898;8.308;2022-07-19T08:39:36;100406.16;;;32.79;55.33
15634;BME280;14654;48.898;8.308;2022-07-19T08:42:01;100398.91;;;32.71;54.97
15634;BME280;14654;48.898;8.308;2022-07-19T08:44:28;100403.56;;;32.69;55.11
15634;BME280;14654;48.898;8.308;2022-07-19T08:46:55;100410.91;;;32.67;56.00
15634;BME280;14654;48.898;8.308;2022-07-19T08:49:20;100417.09;;;32.67;56.64
15634;BME280;14654;48.898;8.308;2022-07-19T08:51:48;100418.91;;;32.59;56.50
15634;BME280;14654;48.898;8.308;2022-07-19T08:54:14;100414.63;;;32.48;56.75
15634;BME280;14654;48.898;8.308;2022-07-19T08:56:40;100416.69;;;32.36;57.08
15634;BME280;14654;48.898;8.308;2022-07-19T08:59:24;100410.41;;;32.27;57.23
15634;BME280;14654;48.898;8.308;2022-07-19T09:01:49;100416.34;;;32.21;57.22
15634;BME280;14654;48.898;8.308;2022-07-19T09:04:16;100416.34;;;32.21;57.95
15634;BME280;14654;48.898;8.308;2022-07-19T09:06:50;100413.69;;;32.21;58.57
15634;BME280;14654;48.898;8.308;2022-07-19T09:09:19;100412.00;;;32.20;59.20
15634;BME280;14654;48.898;8.308;2022-07-19T09:11:48;100413.81;;;32.19;59.08
15634;BME280;14654;48.898;8.308;2022-07-19T09:14:33;100409.38;;;32.10;58.80
15634;BME280;14654;48.898;8.308;2022-07-19T09:17:00;100407.16;;;32.05;58.73
15634;BME280;14654;48.898;8.308;2022-07-19T09:19:30;100403.88;;;32.12;57.54
15634;BME280;14654;48.898;8.308;2022-07-19T09:22:04;100403.97;;;32.20;57.74
15634;BME280;14654;48.898;8.308;2022-07-19T09:24:32;100401.91;;;32.32;57.88
15634;BME280;14654;48.898;8.308;2022-07-19T09:27:09;100395.09;;;32.37;58.05
15634;BME280;14654;48.898;8.308;2022-07-19T09:29:40;100398.31;;;32.41;57.72
15634;BME280;14654;48.898;8.308;2022-07-19T09:34:35;100392.34;;;32.65;54.00
15634;BME280;14654;48.898;8.308;2022-07-19T09:39:44;100390.88;;;32.71;53.27
15634;BME280;14654;48.898;8.308;2022-07-19T09:42:15;100394.44;;;32.80;52.48
15634;BME280;14654;48.898;8.308;2022-07-19T09:44:41;100388.00;;;32.91;51.30
15634;BME280;14654;48.898;8.308;2022-07-19T09:47:07;100390.44;;;33.02;51.34
15634;BME280;14654;48.898;8.308;2022-07-19T09:49:33;100383.09;;;33.12;50.19
15634;BME280;14654;48.898;8.308;2022-07-19T09:51:58;100376.13;;;33.20;48.55
15634;BME280;14654;48.898;8.308;2022-07-19T09:54:27;100377.25;;;33.17;45.69
15634;BME280;14654;48.898;8.308;2022-07-19T09:56:54;100368.28;;;33.26;45.63
15634;BME280;14654;48.898;8.308;2022-07-19T09:59:22;100367.69;;;33.41;45.36
15634;BME280;14654;48.898;8.308;2022-07-19T10:01:51;100367.41;;;33.52;45.68
15634;BME280;14654;48.898;8.308;2022-07-19T10:04:20;100361.56;;;33.65;46.04
15634;BME280;14654;48.898;8.308;2022-07-19T10:06:47;100360.59;;;33.74;46.38
15634;BME280;14654;48.898;8.308;2022-07-19T10:09:15;100356.56;;;33.79;45.71
15634;BME280;14654;48.898;8.308;2022-07-19T10:11:41;100357.75;;;33.84;45.34
15634;BME280;14654;48.898;8.308;2022-07-19T10:14:07;100354.59;;;33.97;45.90
15634;BME280;14654;48.898;8.308;2022-07-19T10:19:45;100353.13;;;34.03;45.23
15634;BME280;14654;48.898;8.308;2022-07-19T10:22:14;100342.22;;;34.04;45.01
15634;BME280;14654;48.898;8.308;2022-07-19T10:27:38;100341.66;;;33.84;43.63
15634;BME280;14654;48.898;8.308;2022-07-19T10:32:32;100337.69;;;34.22;44.58
15634;BME280;14654;48.898;8.308;2022-07-19T10:35:28;100336.66;;;34.23;44.51
15634;BME280;14654;48.898;8.308;2022-07-19T10:40:46;100322.06;;;34.17;43.69
15634;BME280;14654;48.898;8.308;2022-07-19T10:43:13;100322.41;;;34.14;43.57
15634;BME280;14654;48.898;8.308;2022-07-19T10:45:41;100305.31;;;34.23;43.66
15634;BME280;14654;48.898;8.308;2022-07-19T10:48:15;100308.13;;;34.38;44.07
15634;BME280;14654;48.898;8.308;2022-07-19T10:50:49;100318.56;;;34.33;43.44
15634;BME280;14654;48.898;8.308;2022-07-19T10:59:03;100309.81;;;34.23;42.72
15634;BME280;14654;48.898;8.308;2022-07-19T11:01:30;100306.66;;;34.11;43.03
15634;BME280;14654;48.898;8.308;2022-07-19T11:04:27;100298.56;;;34.19;42.53
15634;BME280;14654;48.898;8.308;2022-07-19T11:07:17;100284.81;;;34.14;42.75
15634;BME280;14654;48.898;8.308;2022-07-19T11:09:52;100290.03;;;34.32;43.12
15634;BME280;14654;48.898;8.308;2022-07-19T11:12:30;100275.06;;;34.54;43.27
15634;BME280;14654;48.898;8.308;2022-07-19T11:14:58;100267.16;;;34.61;43.51
15634;BME280;14654;48.898;8.308;2022-07-19T11:17:24;100272.38;;;34.46;42.44
15634;BME280;14654;48.898;8.308;2022-07-19T11:20:18;100266.50;;;34.50;42.22
15634;BME280;14654;48.898;8.308;2022-07-19T11:22:48;100257.09;;;34.55;42.47
15634;BME280;14654;48.898;8.308;2022-07-19T11:25:15;100252.50;;;34.72;42.85
15634;BME280;14654;48.898;8.308;2022-07-19T11:27:45;100260.56;;;34.72;42.13
15634;BME280;14654;48.898;8.308;2022-07-19T11:30:12;100246.44;;;34.78;42.38
15634;BME280;14654;48.898;8.308;2022-07-19T11:32:39;100241.22;;;34.93;42.59
15634;BME280;14654;48.898;8.308;2022-07-19T11:35:08;100248.69;;;35.06;42.77
15634;BME280;14654;48.898;8.308;2022-07-19T11:37:40;100226.84;;;35.09;42.54
15634;BME280;14654;48.898;8.308;2022-07-19T11:40:07;100246.00;;;35.06;42.69
15634;BME280;14654;48.898;8.308;2022-07-19T11:45:21;100241.63;;;35.05;42.32
15634;BME280;14654;48.898;8.308;2022-07-19T11:47:52;100231.19;;;35.10;42.46
15634;BME280;14654;48.898;8.308;2022-07-19T11:50:20;100250.81;;;35.19;42.48
15634;BME280;14654;48.898;8.308;2022-07-19T11:52:57;100230.31;;;35.18;42.70
15634;BME280;14654;48.898;8.308;2022-07-19T11:55:29;100227.06;;;35.31;43.06
15634;BME280;14654;48.898;8.308;2022-07-19T11:57:56;100231.84;;;35.44;43.56
15634;BME280;14654;48.898;8.308;2022-07-19T12:00:22;100228.00;;;35.46;43.50
15634;BME280;14654;48.898;8.308;2022-07-19T12:02:59;100233.38;;;35.38;42.47
15634;BME280;14654;48.898;8.308;2022-07-19T12:05:30;100219.81;;;35.31;42.70
15634;BME280;14654;48.898;8.308;2022-07-19T12:08:00;100220.16;;;35.28;42.55
15634;BME280;14654;48.898;8.308;2022-07-19T12:10:45;100213.06;;;35.35;42.78
15634;BME280;14654;48.898;8.308;2022-07-19T12:13:27;100208.84;;;35.33;42.34
15634;BME280;14654;48.898;8.308;2022-07-19T12:15:55;100199.50;;;35.29;41.65
15634;BME280;14654;48.898;8.308;2022-07-19T12:24:07;100201.72;;;35.48;42.27
15634;BME280;14654;48.898;8.308;2022-07-19T12:26:33;100195.50;;;35.48;42.16
15634;BME280;14654;48.898;8.308;2022-07-19T12:28:58;100192.09;;;35.31;42.23
15634;BME280;14654;48.898;8.308;2022-07-19T12:31:24;100197.19;;;35.40;42.31
15634;BME280;14654;48.898;8.308;2022-07-19T12:34:02;100195.50;;;35.48;42.24
15634;BME280;14654;48.898;8.308;2022-07-19T12:36:35;100202.34;;;35.59;42.38
15634;BME280;14654;48.898;8.308;2022-07-19T12:39:00;100176.56;;;35.64;42.35
15634;BME280;14654;48.898;8.308;2022-07-19T12:41:26;100199.34;;;35.53;42.38
15634;BME280;14654;48.898;8.308;2022-07-19T12:43:51;100179.47;;;35.54;42.38
15634;BME280;14654;48.898;8.308;2022-07-19T12:46:16;100176.44;;;35.58;42.12
15634;BME280;14654;48.898;8.308;2022-07-19T12:48:42;100184.75;;;35.48;41.90
15634;BME280;14654;48.898;8.308;2022-07-19T12:51:07;100182.25;;;35.46;42.22
15634;BME280;14654;48.898;8.308;2022-07-19T12:53:32;100177.50;;;35.48;42.05
15634;BME280;14654;48.898;8.308;2022-07-19T12:55:58;100178.28;;;35.57;42.17
15634;BME280;14654;48.898;8.308;2022-07-19T12:58:23;100164.25;;;35.47;41.97
15634;BME280;14654;48.898;8.308;2022-07-19T13:01:07;100160.28;;;35.58;41.90
15634;BME280;14654;48.898;8.308;2022-07-19T13:03:34;100169.19;;;35.58;41.72
15634;BME280;14654;48.898;8.308;2022-07-19T13:06:00;100165.47;;;35.59;42.22
15634;BME280;14654;48.898;8.308;2022-07-19T13:08:26;100170.00;;;35.82;41.73
15634;BME280;14654;48.898;8.308;2022-07-19T13:10:54;100167.72;;;35.70;41.47
15634;BME280;14654;48.898;8.308;2022-07-19T13:13:19;100155.47;;;35.68;41.32
15634;BME280;14654;48.898;8.308;2022-07-19T13:15:45;100148.06;;;35.70;41.45
15634;BME280;14654;48.898;8.308;2022-07-19T13:18:10;100145.84;;;35.74;41.38